Time;durP1;ratioP1;P1;durP2;ratioP2;P2;SDS_P1;SDS_P2;PMS_P1;PMS_P2;Temp;Humidity;BMP_temperature;BMP_pressure;BME280_temperature;BME280_humidity;BME280_pressure;Samples;Min_cycle;Max_cycle;Signal;HPM_P1;HPM_P2
2023/06/28 00:01:01;;;;;;;6.32;1.90;;;16.40;99.90;;;;;;4866179;29;20107;-78
2023/06/28 00:03:48;;;;;;;4.30;1.40;;;16.30;99.90;;;;;;4865090;29;20047;-78
2023/06/28 00:06:34;;;;;;;5.45;1.70;;;16.30;99.90;;;;;;4872016;29;20044;-78
2023/06/28 00:09:20;;;;;;;4.82;1.80;;;16.30;99.90;;;;;;4876334;29;20037;-78
2023/06/28 00:12:06;;;;;;;3.88;1.73;;;16.30;99.90;;;;;;4853518;29;20049;-78
2023/06/28 00:14:53;;;;;;;5.35;1.80;;;16.10;99.90;;;;;;4879893;29;20053;-78
2023/06/28 00:17:39;;;;;;;4.00;1.43;;;16.10;99.90;;;;;;4866261;29;20404;-78
2023/06/28 00:20:26;;;;;;;7.57;1.85;;;16.20;99.90;;;;;;4871763;29;20075;-78
2023/06/28 00:23:13;;;;;;;6.63;1.67;;;16.10;99.90;;;;;;4894388;29;20051;-78
2023/06/28 00:25:59;;;;;;;8.07;1.92;;;16.10;99.90;;;;;;4896311;29;20055;-78
2023/06/28 00:28:46;;;;;;;7.40;1.70;;;16.10;99.90;;;;;;4889385;29;20051;-78
2023/06/28 00:31:33;;;;;;;5.97;2.30;;;16.20;99.90;;;;;;4890010;29;20051;-78
2023/06/28 00:34:19;;;;;;;8.40;2.10;;;16.20;99.90;;;;;;4890521;29;20494;-78
2023/06/28 00:37:07;;;;;;;5.68;1.80;;;16.20;99.90;;;;;;4882469;29;20047;-78
2023/06/28 00:39:54;;;;;;;4.75;1.80;;;16.20;99.90;;;;;;4884105;29;20060;-78
2023/06/28 00:42:40;;;;;;;5.35;1.65;;;16.10;99.90;;;;;;4909881;29;20048;-78
2023/06/28 00:45:26;;;;;;;7.28;2.03;;;16.10;99.90;;;;;;4870454;29;20115;-78
2023/06/28 00:48:12;;;;;;;6.95;1.90;;;16.00;99.90;;;;;;4874170;29;20048;-78
2023/06/28 00:50:58;;;;;;;3.60;1.60;;;15.90;99.90;;;;;;4888034;29;20051;-78
2023/06/28 00:53:44;;;;;;;8.23;2.10;;;15.90;99.90;;;;;;4887125;29;20048;-78
2023/06/28 00:56:30;;;;;;;9.10;2.20;;;16.00;99.90;;;;;;4895551;29;20055;-78
2023/06/28 00:59:16;;;;;;;7.68;2.17;;;15.90;99.90;;;;;;4887893;29;20482;-78
2023/06/28 01:02:02;;;;;;;5.07;1.80;;;15.80;99.90;;;;;;4875277;29;20070;-78
2023/06/28 01:04:50;;;;;;;6.10;1.70;;;15.80;99.90;;;;;;4888704;29;20055;-78
2023/06/28 01:07:36;;;;;;;4.53;1.70;;;15.70;99.90;;;;;;4908004;29;20045;-78
2023/06/28 01:10:22;;;;;;;10.65;2.45;;;15.70;99.90;;;;;;4884332;29;20052;-78
2023/06/28 01:13:08;;;;;;;4.80;1.92;;;15.70;99.90;;;;;;4891370;29;20063;-78
2023/06/28 01:15:54;;;;;;;8.55;2.33;;;15.80;99.90;;;;;;4884914;29;20549;-78
2023/06/28 01:18:40;;;;;;;4.85;1.98;;;15.60;99.90;;;;;;4897514;29;20199;-78
2023/06/28 01:21:31;;;;;;;7.68;2.47;;;15.40;99.90;;;;;;4885747;29;20565;-79
2023/06/28 01:24:21;;;;;;;7.57;2.25;;;15.40;99.90;;;;;;4883971;29;20044;-79
2023/06/28 01:27:09;;;;;;;4.03;1.75;;;15.30;99.90;;;;;;4889829;29;20039;-79
2023/06/28 01:29:56;;;;;;;6.90;2.15;;;15.40;99.90;;;;;;4902711;29;20047;-79
2023/06/28 01:32:43;;;;;;;5.28;1.92;;;15.40;99.90;;;;;;4900482;29;20075;-79
2023/06/28 01:35:31;;;;;;;8.23;2.45;;;15.40;99.90;;;;;;4874015;29;20121;-79
2023/06/28 01:38:18;;;;;;;;;;;15.40;99.90;;;;;;4905268;29;20044;-79
2023/06/28 01:41:05;;;;;;;3.65;1.80;;;15.40;99.90;;;;;;4896590;29;19920;-79
2023/06/28 01:43:50;;;;;;;8.15;2.30;;;15.40;99.90;;;;;;4890628;29;20044;-79
2023/06/28 01:46:36;;;;;;;6.78;2.38;;;15.40;99.90;;;;;;4891702;29;20474;-79
2023/06/28 01:49:25;;;;;;;7.55;2.45;;;15.30;99.90;;;;;;4899383;29;20132;-78
2023/06/28 01:52:11;;;;;;;10.35;2.42;;;15.30;99.90;;;;;;4891967;29;20127;-78
2023/06/28 01:54:57;;;;;;;6.22;2.15;;;15.30;99.90;;;;;;4885999;29;20088;-78
2023/06/28 01:57:45;;;;;;;8.48;2.30;;;15.30;99.90;;;;;;4901642;29;20120;-78
2023/06/28 02:00:32;;;;;;;7.90;2.30;;;15.20;99.90;;;;;;4883891;29;20474;-78
2023/06/28 02:03:18;;;;;;;11.03;2.30;;;15.20;99.90;;;;;;4888902;29;20040;-78
2023/06/28 02:06:04;;;;;;;4.85;2.00;;;15.20;99.90;;;;;;4883632;29;20321;-78
2023/06/28 02:08:50;;;;;;;12.32;3.22;;;15.10;99.90;;;;;;4885539;29;20169;-78
2023/06/28 02:11:36;;;;;;;6.38;2.85;;;15.10;99.90;;;;;;4901542;29;20132;-78
2023/06/28 02:14:22;;;;;;;5.68;2.10;;;14.90;99.90;;;;;;4883643;29;20083;-78
2023/06/28 02:17:13;;;;;;;11.27;2.72;;;15.00;99.90;;;;;;4881534;29;20052;-78
2023/06/28 02:20:00;;;;;;;7.78;2.55;;;15.00;99.90;;;;;;4907948;29;20052;-78
2023/06/28 02:22:45;;;;;;;11.40;2.40;;;14.90;99.90;;;;;;4899852;29;20048;-78
2023/06/28 02:25:31;;;;;;;9.95;2.38;;;14.90;99.90;;;;;;4893542;29;20039;-78
2023/06/28 02:28:19;;;;;;;10.57;3.22;;;15.00;99.90;;;;;;4895844;29;20049;-78
2023/06/28 02:31:05;;;;;;;9.63;2.88;;;15.00;99.90;;;;;;4887454;29;20044;-78
2023/06/28 02:33:51;;;;;;;9.23;3.03;;;15.10;99.90;;;;;;4891875;29;20331;-78
2023/06/28 02:36:37;;;;;;;7.20;2.58;;;15.00;99.90;;;;;;4882967;29;20048;-78
2023/06/28 02:39:23;;;;;;;10.98;3.10;;;14.90;99.90;;;;;;4894044;29;20088;-78
2023/06/28 02:42:09;;;;;;;8.32;3.03;;;14.90;99.90;;;;;;4895487;29;20083;-78
2023/06/28 02:44:55;;;;;;;10.85;2.85;;;14.90;99.90;;;;;;4883018;29;20505;-78
2023/06/28 02:47:41;;;;;;;8.90;3.35;;;14.70;99.90;;;;;;4884295;29;20076;-78
2023/06/28 02:50:27;;;;;;;11.18;3.28;;;14.80;99.90;;;;;;4888543;29;20046;-78
2023/06/28 02:53:14;;;;;;;8.07;3.13;;;14.70;99.90;;;;;;4900333;29;20120;-79
2023/06/28 02:56:00;;;;;;;9.65;2.95;;;14.70;99.90;;;;;;4886721;29;20044;-79
2023/06/28 02:58:46;;;;;;;10.38;4.22;;;14.70;99.90;;;;;;4883124;29;20086;-79
2023/06/28 03:01:32;;;;;;;7.93;3.05;;;14.70;99.90;;;;;;4883726;29;20084;-78
2023/06/28 03:04:18;;;;;;;8.68;3.05;;;14.60;99.90;;;;;;4897672;29;20104;-79
2023/06/28 03:07:04;;;;;;;8.80;2.97;;;14.60;99.90;;;;;;4891828;29;20055;-79
2023/06/28 03:09:50;;;;;;;10.07;3.50;;;14.60;99.90;;;;;;4886523;29;20046;-79
2023/06/28 03:12:36;;;;;;;8.35;3.10;;;14.70;99.90;;;;;;4882943;29;20048;-79
2023/06/28 03:15:22;;;;;;;12.77;3.25;;;14.60;99.90;;;;;;4887275;29;20040;-79
2023/06/28 03:18:08;;;;;;;14.43;3.42;;;14.50;99.90;;;;;;4885440;29;20059;-79
2023/06/28 03:20:54;;;;;;;9.88;3.28;;;14.50;99.90;;;;;;4885634;29;20055;-79
2023/06/28 03:23:40;;;;;;;13.15;3.22;;;14.50;99.90;;;;;;4878454;29;20048;-79
2023/06/28 03:26:27;;;;;;;6.32;2.97;;;14.50;99.90;;;;;;4893931;29;20140;-79
2023/06/28 03:29:13;;;;;;;10.50;3.72;;;14.50;99.90;;;;;;4887926;29;20053;-79
2023/06/28 03:31:58;;;;;;;9.68;3.22;;;14.50;99.90;;;;;;4886314;29;20067;-79
2023/06/28 03:34:58;;;;;;;11.55;3.67;;;14.60;99.90;;;;;;4894618;29;20168;-79
2023/06/28 03:37:54;;;;;;;10.65;3.55;;;14.50;99.90;;;;;;4885615;29;20048;-79
2023/06/28 03:40:40;;;;;;;8.73;3.30;;;14.50;99.90;;;;;;4874689;29;20215;-79
2023/06/28 03:43:26;;;;;;;11.18;3.83;;;14.50;99.90;;;;;;4898078;29;20087;-79
2023/06/28 03:46:12;;;;;;;11.27;3.60;;;14.50;99.90;;;;;;4870196;29;20040;-79
2023/06/28 03:48:58;;;;;;;10.27;3.55;;;14.60;99.90;;;;;;4885416;29;20120;-79
2023/06/28 03:51:43;;;;;;;10.18;3.63;;;14.50;99.90;;;;;;4885595;29;20055;-79
2023/06/28 03:54:29;;;;;;;11.80;3.90;;;14.60;99.90;;;;;;4891771;29;20043;-79
2023/06/28 03:57:15;;;;;;;12.50;3.55;;;14.50;99.90;;;;;;4889387;29;20445;-79
2023/06/28 04:00:04;;;;;;;12.73;3.45;;;14.50;99.90;;;;;;4885055;29;20080;-79
2023/06/28 04:02:50;;;;;;;;;;;14.50;99.90;;;;;;4900071;29;20056;-79
2023/06/28 04:05:35;;;;;;;17.25;5.13;;;14.50;99.90;;;;;;4894958;29;20206;-79
2023/06/28 04:08:26;;;;;;;13.13;3.30;;;14.30;99.90;;;;;;4876767;29;20123;-79
2023/06/28 04:11:12;;;;;;;9.98;3.60;;;14.30;99.90;;;;;;4885314;29;20059;-79
2023/06/28 04:13:58;;;;;;;10.00;3.28;;;14.50;99.90;;;;;;4892896;29;20075;-79
2023/06/28 04:16:44;;;;;;;11.48;3.53;;;14.40;99.90;;;;;;4886570;29;20126;-79
2023/06/28 04:19:30;;;;;;;14.38;3.70;;;14.20;99.90;;;;;;4884342;29;20049;-79
2023/06/28 04:22:16;;;;;;;13.30;3.63;;;14.30;99.90;;;;;;4899979;29;20455;-79
2023/06/28 04:25:03;;;;;;;8.77;3.40;;;14.30;99.90;;;;;;4885128;29;20055;-79
2023/06/28 04:27:48;;;;;;;10.57;4.10;;;14.40;99.90;;;;;;4872528;29;20044;-79
2023/06/28 04:30:34;;;;;;;7.78;3.42;;;14.40;99.90;;;;;;4889478;29;20441;-79
2023/06/28 04:33:22;;;;;;;8.32;3.50;;;14.20;99.90;;;;;;4889392;29;20044;-79
2023/06/28 04:36:09;;;;;;;9.85;3.60;;;14.40;99.90;;;;;;4887974;29;20070;-79
2023/06/28 04:38:56;;;;;;;9.48;3.60;;;14.40;99.90;;;;;;4903682;29;20036;-79
2023/06/28 04:41:42;;;;;;;12.38;3.78;;;14.40;99.90;;;;;;4887342;29;20505;-80
2023/06/28 04:44:36;;;;;;;8.35;3.63;;;14.40;99.90;;;;;;4878113;29;20044;-80
2023/06/28 04:47:23;;;;;;;8.52;3.50;;;14.50;99.90;;;;;;4878121;29;20149;-80
2023/06/28 04:50:09;;;;;;;12.88;3.67;;;14.40;99.90;;;;;;4888414;29;20504;-80
2023/06/28 04:52:55;;;;;;;9.68;3.38;;;14.40;99.90;;;;;;4900913;29;20051;-80
2023/06/28 04:55:43;;;;;;;10.88;3.50;;;14.50;99.90;;;;;;4885239;29;20056;-80
2023/06/28 04:58:33;;;;;;;7.40;3.90;;;14.60;99.90;;;;;;4897185;29;20068;-80
2023/06/28 05:01:19;;;;;;;13.13;3.80;;;14.60;99.90;;;;;;4910791;29;20437;-80
2023/06/28 05:04:05;;;;;;;11.30;4.43;;;14.60;99.90;;;;;;4896986;29;20044;-80
2023/06/28 05:06:51;;;;;;;11.25;3.65;;;14.70;99.90;;;;;;4884862;29;20044;-80
2023/06/28 05:09:38;;;;;;;7.47;3.50;;;14.70;99.90;;;;;;4876751;29;20048;-80
2023/06/28 05:12:24;;;;;;;9.35;3.85;;;14.70;99.90;;;;;;4884097;29;20500;-80
2023/06/28 05:15:10;;;;;;;8.05;3.13;;;14.80;99.90;;;;;;4883859;29;20052;-80
2023/06/28 05:17:56;;;;;;;11.05;4.05;;;14.90;99.90;;;;;;4877975;29;20110;-80
2023/06/28 05:20:42;;;;;;;11.80;3.45;;;14.90;99.90;;;;;;4884720;29;20143;-80
2023/06/28 05:23:28;;;;;;;10.23;3.08;;;14.90;99.90;;;;;;4902128;29;20055;-80
2023/06/28 05:26:14;;;;;;;14.55;3.72;;;15.00;99.90;;;;;;4893680;29;20040;-80
2023/06/28 05:29:00;;;;;;;11.98;4.30;;;15.00;99.90;;;;;;4884934;29;20051;-80
2023/06/28 05:31:46;;;;;;;14.18;3.70;;;15.10;99.90;;;;;;4884809;29;20050;-80
2023/06/28 05:34:32;;;;;;;10.95;4.22;;;15.10;99.90;;;;;;4884117;29;20352;-79
2023/06/28 05:37:18;;;;;;;12.38;3.60;;;15.10;99.90;;;;;;4870884;29;20121;-79
2023/06/28 05:40:05;;;;;;;11.07;3.92;;;15.10;99.90;;;;;;4895620;29;20509;-79
2023/06/28 05:42:51;;;;;;;9.13;4.28;;;15.20;99.90;;;;;;4885934;29;20041;-79
2023/06/28 05:45:37;;;;;;;11.70;3.80;;;15.20;99.90;;;;;;4883273;29;20382;-79
2023/06/28 05:48:23;;;;;;;10.63;4.57;;;15.30;99.90;;;;;;4883226;29;20047;-79
2023/06/28 05:51:12;;;;;;;15.40;4.38;;;15.40;99.90;;;;;;4886249;29;20363;-79
2023/06/28 05:53:58;;;;;;;16.20;3.83;;;15.40;99.90;;;;;;4884355;29;20041;-79
2023/06/28 05:56:44;;;;;;;14.52;4.00;;;15.40;99.90;;;;;;4870840;29;20538;-79
2023/06/28 05:59:31;;;;;;;11.57;3.90;;;15.40;99.90;;;;;;4877933;29;20086;-79
2023/06/28 06:02:17;;;;;;;11.52;3.67;;;15.50;99.90;;;;;;4900405;29;20052;-79
2023/06/28 06:05:03;;;;;;;11.75;4.32;;;15.60;99.90;;;;;;4874684;29;20048;-79
2023/06/28 06:07:49;;;;;;;11.15;3.72;;;15.60;99.90;;;;;;4896681;29;20136;-79
2023/06/28 06:10:35;;;;;;;11.52;3.83;;;15.70;99.90;;;;;;4897444;29;20352;-79
2023/06/28 06:13:21;;;;;;;11.60;3.47;;;15.70;99.90;;;;;;4894406;29;20048;-79
2023/06/28 06:16:07;;;;;;;18.98;3.45;;;15.80;99.90;;;;;;4882155;29;20080;-79
2023/06/28 06:18:53;;;;;;;11.73;4.93;;;15.90;99.90;;;;;;4888547;29;20040;-79
2023/06/28 06:21:39;;;;;;;9.43;3.38;;;16.00;99.90;;;;;;4876736;29;20515;-79
2023/06/28 06:24:25;;;;;;;10.65;3.30;;;16.00;99.90;;;;;;4858745;29;20044;-79
2023/06/28 06:27:11;;;;;;;14.07;3.10;;;16.10;99.90;;;;;;4864122;29;20044;-79
2023/06/28 06:29:57;;;;;;;16.52;4.13;;;16.20;99.90;;;;;;4876864;29;20048;-78
2023/06/28 06:32:43;;;;;;;9.48;2.85;;;16.20;99.90;;;;;;4877653;29;20120;-78
2023/06/28 06:35:30;;;;;;;11.85;2.78;;;16.30;99.90;;;;;;4888846;29;20083;-79
2023/06/28 06:38:16;;;;;;;11.60;3.33;;;16.30;99.90;;;;;;4868569;29;20075;-79
2023/06/28 06:41:02;;;;;;;13.55;3.13;;;16.30;99.90;;;;;;4873037;29;20056;-79
2023/06/28 06:43:49;;;;;;;10.45;2.88;;;16.40;99.90;;;;;;4868343;29;20072;-79
2023/06/28 06:46:36;;;;;;;10.57;3.50;;;16.40;99.90;;;;;;4886718;29;20049;-79
2023/06/28 06:49:24;;;;;;;10.98;2.80;;;16.50;99.90;;;;;;4880187;29;20132;-79
2023/06/28 06:52:11;;;;;;;11.23;2.67;;;16.50;99.90;;;;;;4891874;29;20188;-79
2023/06/28 06:54:57;;;;;;;12.30;2.42;;;16.50;99.90;;;;;;4879575;29;20079;-79
2023/06/28 06:57:43;;;;;;;9.55;2.38;;;16.60;99.90;;;;;;4867494;29;20148;-79
2023/06/28 07:00:32;;;;;;;12.25;2.95;;;16.60;99.90;;;;;;4862412;29;20121;-79
2023/06/28 07:03:18;;;;;;;9.00;2.45;;;16.80;99.90;;;;;;4872457;29;20107;-79
2023/06/28 07:06:04;;;;;;;11.98;2.90;;;16.80;99.90;;;;;;4873895;29;20548;-79
2023/06/28 07:08:50;;;;;;;10.18;2.85;;;16.80;99.90;;;;;;4867709;29;20204;-80
2023/06/28 07:11:36;;;;;;;12.57;3.03;;;16.80;99.90;;;;;;4888485;29;20071;-80
2023/06/28 07:14:25;;;;;;;7.72;1.90;;;16.80;99.90;;;;;;4867509;29;20075;-80
2023/06/28 07:17:11;;;;;;;6.18;1.92;;;16.80;99.90;;;;;;4871608;29;20089;-80
2023/06/28 07:19:59;;;;;;;12.90;2.53;;;16.90;99.90;;;;;;4857399;29;20446;-80
2023/06/28 07:22:47;;;;;;;7.78;2.08;;;16.90;99.90;;;;;;4892886;29;20130;-80
2023/06/28 07:25:33;;;;;;;8.80;2.25;;;17.00;99.90;;;;;;4889395;29;20052;-80
2023/06/28 07:28:19;;;;;;;9.10;1.77;;;17.00;99.90;;;;;;4894371;29;20442;-80
2023/06/28 07:31:04;;;;;;;8.65;1.65;;;17.10;99.90;;;;;;4885962;29;20120;-80
2023/06/28 07:33:50;;;;;;;11.40;2.45;;;17.10;99.90;;;;;;4892875;29;20115;-80
2023/06/28 07:36:37;;;;;;;11.43;3.00;;;17.20;99.90;;;;;;4890638;29;20047;-79
2023/06/28 07:39:23;;;;;;;8.70;2.25;;;17.30;99.90;;;;;;4888832;29;20048;-79
2023/06/28 07:42:09;;;;;;;9.25;2.30;;;17.20;99.90;;;;;;4885347;29;20135;-79
2023/06/28 07:44:55;;;;;;;10.75;2.10;;;17.20;99.90;;;;;;4898107;29;20045;-79
2023/06/28 07:47:41;;;;;;;11.13;2.38;;;17.10;99.90;;;;;;4897838;29;20040;-79
2023/06/28 07:50:27;;;;;;;11.45;2.67;;;17.30;99.90;;;;;;4885489;29;20071;-79
2023/06/28 07:53:14;;;;;;;10.38;2.67;;;17.40;99.90;;;;;;4886450;29;20036;-79
2023/06/28 07:56:00;;;;;;;11.85;2.20;;;17.40;99.90;;;;;;4898597;29;20135;-79
2023/06/28 07:58:46;;;;;;;5.20;1.77;;;17.30;99.90;;;;;;4897351;29;20048;-79
2023/06/28 08:01:33;;;;;;;11.27;2.50;;;17.30;99.90;;;;;;4893051;29;20070;-79
2023/06/28 08:04:20;;;;;;;10.10;2.53;;;17.40;99.90;;;;;;4890085;29;20084;-79
2023/06/28 08:07:06;;;;;;;7.68;1.98;;;17.50;99.90;;;;;;4885185;29;20044;-79
2023/06/28 08:09:52;;;;;;;9.32;1.85;;;17.50;99.90;;;;;;4877732;29;20090;-79
2023/06/28 08:12:38;;;;;;;6.43;1.60;;;17.50;99.90;;;;;;4875323;29;20040;-79
2023/06/28 08:15:24;;;;;;;8.90;2.15;;;17.60;99.90;;;;;;4884948;29;20382;-79
2023/06/28 08:18:10;;;;;;;7.22;1.77;;;17.80;99.90;;;;;;4888197;29;20437;-79
2023/06/28 08:20:56;;;;;;;6.82;1.83;;;17.90;99.90;;;;;;4896331;29;20060;-79
2023/06/28 08:23:42;;;;;;;7.05;2.40;;;17.90;99.90;;;;;;4889361;29;20373;-79
2023/06/28 08:26:28;;;;;;;14.88;3.58;;;17.90;99.90;;;;;;4892347;29;20047;-79
2023/06/28 08:29:16;;;;;;;9.02;2.22;;;17.80;99.90;;;;;;4894170;29;20073;-79
2023/06/28 08:32:05;;;;;;;10.40;2.65;;;17.90;99.90;;;;;;4887436;29;20062;-79
2023/06/28 08:34:51;;;;;;;10.05;2.10;;;18.00;99.90;;;;;;4880362;29;20048;-79
2023/06/28 08:37:37;;;;;;;9.00;1.90;;;18.00;99.90;;;;;;4901118;29;20048;-79
2023/06/28 08:40:27;;;;;;;5.55;1.55;;;18.10;99.90;;;;;;4879251;29;20083;-79
2023/06/28 08:43:14;;;;;;;5.05;1.63;;;18.10;98.30;;;;;;4896813;29;20548;-79
2023/06/28 08:46:00;;;;;;;5.93;1.95;;;18.10;96.80;;;;;;4887005;29;20036;-79
2023/06/28 08:48:47;;;;;;;4.97;1.77;;;18.20;97.20;;;;;;4894994;29;20135;-79
2023/06/28 08:51:33;;;;;;;8.82;1.80;;;18.30;98.90;;;;;;4899786;29;20043;-79
2023/06/28 08:54:21;;;;;;;8.13;2.08;;;18.30;99.70;;;;;;4896769;29;20526;-79
2023/06/28 08:57:07;;;;;;;6.60;2.03;;;18.20;99.50;;;;;;4890185;29;20162;-79
2023/06/28 08:59:53;;;;;;;3.70;1.58;;;18.20;99.80;;;;;;4887063;29;20052;-79
2023/06/28 09:02:42;;;;;;;6.25;1.63;;;18.30;99.60;;;;;;4882785;29;20041;-79
2023/06/28 09:05:28;;;;;;;6.18;1.38;;;18.50;98.00;;;;;;4913391;29;20426;-80
2023/06/28 09:08:15;;;;;;;7.50;1.75;;;18.60;97.80;;;;;;4895745;29;20037;-80
2023/06/28 09:11:01;;;;;;;7.60;2.42;;;18.60;98.90;;;;;;4896389;29;20051;-80
2023/06/28 09:13:48;;;;;;;12.27;2.10;;;18.50;98.60;;;;;;4888207;29;20059;-80
2023/06/28 09:16:35;;;;;;;6.43;2.55;;;18.60;99.00;;;;;;4892566;29;20039;-80
2023/06/28 09:19:20;;;;;;;9.02;2.88;;;18.80;99.10;;;;;;4887156;29;20052;-79
2023/06/28 09:22:08;;;;;;;12.60;2.35;;;18.80;99.10;;;;;;4889913;29;20379;-79
2023/06/28 09:24:54;;;;;;;7.25;1.90;;;18.70;97.20;;;;;;4856569;29;20045;-79
2023/06/28 09:27:42;;;;;;;7.95;2.50;;;18.60;96.50;;;;;;4882823;29;20048;-79
2023/06/28 09:30:28;;;;;;;6.97;1.90;;;18.70;97.10;;;;;;4864804;29;20073;-79
2023/06/28 09:33:13;;;;;;;6.05;1.73;;;18.80;96.90;;;;;;4889334;29;20395;-79
2023/06/28 09:36:00;;;;;;;6.90;1.90;;;18.90;97.40;;;;;;4875397;29;20041;-79
2023/06/28 09:38:46;;;;;;;5.68;1.77;;;19.00;97.10;;;;;;4879051;29;20045;-80
2023/06/28 09:41:39;;;;;;;8.13;2.05;;;19.10;97.40;;;;;;4871456;29;20075;-80
2023/06/28 09:44:29;;;;;;;8.52;1.70;;;19.20;97.10;;;;;;4865442;29;20466;-80
2023/06/28 09:47:15;;;;;;;5.15;1.80;;;19.30;95.30;;;;;;4883682;29;20131;-80
2023/06/28 09:50:02;;;;;;;6.70;2.00;;;19.30;96.70;;;;;;4882500;29;20036;-80
2023/06/28 09:52:48;;;;;;;4.97;1.67;;;19.30;95.10;;;;;;4871356;29;20051;-79
2023/06/28 09:55:34;;;;;;;7.25;1.67;;;19.40;95.00;;;;;;4864779;29;20131;-79
2023/06/28 09:58:23;;;;;;;8.32;2.28;;;19.40;94.90;;;;;;4867492;29;20094;-79
2023/06/28 10:01:09;;;;;;;5.30;1.90;;;19.50;95.20;;;;;;4870879;29;20048;-80
2023/06/28 10:03:55;;;;;;;4.40;1.30;;;19.70;95.80;;;;;;4871358;29;20037;-80
2023/06/28 10:06:41;;;;;;;9.65;1.40;;;19.80;95.50;;;;;;4878810;29;20049;-79
2023/06/28 10:09:34;;;;;;;11.02;1.70;;;19.80;94.70;;;;;;4868789;29;20049;-80
2023/06/28 10:12:21;;;;;;;7.45;1.83;;;19.90;95.20;;;;;;4867275;29;20049;-80
2023/06/28 10:15:10;;;;;;;5.53;1.65;;;19.80;94.50;;;;;;4856613;29;20048;-81
2023/06/28 10:17:56;;;;;;;7.35;1.88;;;19.60;94.80;;;;;;4871156;29;20131;-81
2023/06/28 10:20:42;;;;;;;8.25;2.15;;;19.80;94.80;;;;;;4888501;29;20043;-80
2023/06/28 10:23:29;;;;;;;8.85;1.90;;;19.90;94.30;;;;;;4909377;29;20040;-80
2023/06/28 10:26:15;;;;;;;4.28;1.50;;;19.80;93.90;;;;;;4917530;29;20094;-80
2023/06/28 10:29:02;;;;;;;6.95;1.60;;;20.00;93.60;;;;;;4902773;29;20139;-80
2023/06/28 10:31:48;;;;;;;6.63;1.50;;;20.20;92.80;;;;;;4903793;29;20044;-80
2023/06/28 10:34:35;;;;;;;5.80;1.40;;;20.20;93.10;;;;;;4907654;29;20044;-79
2023/06/28 10:37:21;;;;;;;5.15;1.38;;;20.10;92.90;;;;;;4902110;29;20553;-79
2023/06/28 10:40:09;;;;;;;6.13;1.50;;;20.00;93.00;;;;;;4900766;29;20063;-79
2023/06/28 10:42:55;;;;;;;;;;;20.00;93.00;;;;;;4898677;29;20472;-80
2023/06/28 10:45:41;;;;;;;5.90;1.45;;;20.20;93.40;;;;;;4915687;29;20002;-80
2023/06/28 10:48:27;;;;;;;4.80;1.50;;;20.30;92.00;;;;;;4901373;29;20485;-80
2023/06/28 10:51:13;;;;;;;7.05;2.38;;;20.50;92.40;;;;;;4901121;29;20124;-80
2023/06/28 10:54:07;;;;;;;6.10;1.30;;;20.40;91.80;;;;;;4901654;29;20040;-81
2023/06/28 10:56:58;;;;;;;6.50;1.58;;;20.50;91.40;;;;;;4889109;29;20123;-81
2023/06/28 10:59:45;;;;;;;7.05;1.45;;;20.40;91.80;;;;;;4901902;29;20052;-81
2023/06/28 11:02:51;;;;;;;5.88;1.25;;;20.50;91.70;;;;;;4891536;29;20437;-81
2023/06/28 11:05:53;;;;;;;4.05;1.35;;;20.70;91.30;;;;;;4918758;29;20480;-80
2023/06/28 11:08:45;;;;;;;6.05;1.45;;;20.80;90.50;;;;;;4902723;29;20067;-81
2023/06/28 11:11:31;;;;;;;6.50;1.70;;;21.00;90.90;;;;;;4914167;29;20047;-80
2023/06/28 11:14:25;;;;;;;5.03;1.40;;;20.70;90.80;;;;;;4903516;29;20550;-80
2023/06/28 11:17:11;;;;;;;4.32;1.10;;;20.90;90.60;;;;;;4912897;29;20493;-81
2023/06/28 11:20:07;;;;;;;5.30;1.15;;;21.10;90.60;;;;;;4911486;29;20043;-81
2023/06/28 11:22:53;;;;;;;5.43;1.27;;;21.30;91.00;;;;;;4908611;29;20075;-81
2023/06/28 11:25:40;;;;;;;4.75;1.33;;;21.40;90.20;;;;;;4910973;29;20039;-81
2023/06/28 11:28:30;;;;;;;4.10;1.40;;;21.20;88.10;;;;;;4905599;29;20044;-80
2023/06/28 11:31:38;;;;;;;5.93;1.38;;;21.10;90.00;;;;;;4907928;29;20079;-81
2023/06/28 11:34:25;;;;;;;6.10;1.52;;;21.10;89.70;;;;;;4919920;29;20106;-80
2023/06/28 11:37:11;;;;;;;6.82;1.73;;;21.30;89.80;;;;;;4892214;29;20043;-80
2023/06/28 11:40:00;;;;;;;3.67;1.10;;;21.20;88.20;;;;;;4915371;29;20055;-79
2023/06/28 11:42:46;;;;;;;4.63;1.25;;;21.10;87.50;;;;;;4904600;29;20045;-79
2023/06/28 11:45:32;;;;;;;6.78;1.45;;;21.20;88.50;;;;;;4904716;29;20044;-79
2023/06/28 11:48:20;;;;;;;5.03;1.45;;;21.40;88.70;;;;;;4917507;29;20079;-80
2023/06/28 11:51:06;;;;;;;4.68;1.33;;;21.40;88.30;;;;;;4909896;29;20444;-80
2023/06/28 11:53:55;;;;;;;4.78;1.40;;;21.30;88.80;;;;;;4897275;29;20139;-79
2023/06/28 11:56:42;;;;;;;5.80;1.45;;;21.20;86.90;;;;;;4904745;29;20466;-79
2023/06/28 11:59:31;;;;;;;5.00;1.20;;;21.20;86.80;;;;;;4905725;29;20052;-79
2023/06/28 12:02:17;;;;;;;7.88;1.48;;;21.40;87.00;;;;;;4917395;29;20426;-79
2023/06/28 12:05:05;;;;;;;5.10;1.02;;;21.60;87.60;;;;;;4897590;29;20054;-80
2023/06/28 12:07:51;;;;;;;4.18;1.30;;;21.50;86.20;;;;;;4905726;29;20137;-80
2023/06/28 12:10:37;;;;;;;5.05;1.17;;;21.40;85.30;;;;;;4906715;29;20163;-80
2023/06/28 12:13:23;;;;;;;6.03;1.67;;;21.40;84.90;;;;;;4893428;29;20074;-79
2023/06/28 12:16:17;;;;;;;4.75;1.35;;;21.30;86.30;;;;;;4927524;29;20079;-80
2023/06/28 12:19:03;;;;;;;4.00;1.42;;;21.30;86.90;;;;;;4910236;29;20059;-79
2023/06/28 12:21:49;;;;;;;4.43;1.52;;;21.30;85.70;;;;;;4910735;29;20126;-80
2023/06/28 12:24:35;;;;;;;4.10;1.27;;;21.20;84.50;;;;;;4904759;29;20044;-80
2023/06/28 12:27:21;;;;;;;5.15;1.45;;;21.50;86.30;;;;;;4920864;29;20047;-80
2023/06/28 12:30:12;;;;;;;4.10;1.33;;;21.50;85.50;;;;;;4906915;29;20046;-80
2023/06/28 12:32:59;;;;;;;3.10;1.42;;;21.60;86.20;;;;;;4915581;29;20481;-81
2023/06/28 12:35:46;;;;;;;4.25;1.25;;;21.90;86.60;;;;;;4912534;29;20043;-80
2023/06/28 12:38:33;;;;;;;5.68;1.48;;;22.20;86.40;;;;;;4917319;29;20063;-80
2023/06/28 12:41:19;;;;;;;5.47;1.25;;;22.00;84.90;;;;;;4909396;29;20048;-81
2023/06/28 12:44:05;;;;;;;4.60;1.40;;;22.00;85.90;;;;;;4919000;29;20122;-80
2023/06/28 12:46:51;;;;;;;3.88;1.50;;;22.00;86.60;;;;;;4903646;29;20044;-81
2023/06/28 12:49:37;;;;;;;6.57;1.80;;;22.00;86.50;;;;;;4899360;29;20056;-81
2023/06/28 12:52:27;;;;;;;5.90;1.17;;;21.90;85.80;;;;;;4910254;29;20139;-81
2023/06/28 12:55:13;;;;;;;3.95;1.27;;;21.70;85.90;;;;;;4910366;29;20119;-81
2023/06/28 12:58:00;;;;;;;4.53;1.40;;;21.70;86.40;;;;;;4895546;29;20371;-80
2023/06/28 13:00:47;;;;;;;3.92;1.35;;;21.70;87.30;;;;;;4907933;29;20118;-80
2023/06/28 13:03:33;;;;;;;7.00;1.70;;;21.80;88.40;;;;;;4910009;29;20048;-81
2023/06/28 13:06:19;;;;;;;4.72;1.10;;;21.70;87.00;;;;;;4899941;29;20521;-80
2023/06/28 13:09:05;;;;;;;5.03;1.83;;;21.90;87.60;;;;;;4915515;29;20487;-81
2023/06/28 13:11:51;;;;;;;3.78;1.40;;;22.20;86.20;;;;;;4903756;29;20497;-81
2023/06/28 13:14:38;;;;;;;3.70;1.38;;;22.50;86.30;;;;;;4928126;29;20101;-81
2023/06/28 13:17:24;;;;;;;6.03;1.60;;;22.50;86.20;;;;;;4919460;29;20040;-81
2023/06/28 13:20:11;;;;;;;7.20;1.83;;;22.40;84.50;;;;;;4916086;29;20082;-80
2023/06/28 13:22:57;;;;;;;3.72;1.60;;;22.30;86.00;;;;;;4901197;29;20056;-81
2023/06/28 13:25:43;;;;;;;6.05;1.98;;;22.20;85.60;;;;;;4897279;29;20130;-81
2023/06/28 13:28:29;;;;;;;7.60;1.52;;;22.20;85.70;;;;;;4908806;29;20680;-80
2023/06/28 13:31:15;;;;;;;5.28;1.70;;;22.10;87.40;;;;;;4906495;29;20047;-80
2023/06/28 13:34:01;;;;;;;7.05;1.90;;;22.00;87.60;;;;;;4913629;29;20095;-80
2023/06/28 13:36:47;;;;;;;4.90;1.63;;;22.00;87.70;;;;;;4915858;29;20048;-81
2023/06/28 13:39:33;;;;;;;5.78;1.60;;;21.90;86.20;;;;;;4915054;29;20401;-81
2023/06/28 13:42:19;;;;;;;4.93;1.50;;;22.10;87.80;;;;;;4923892;29;20426;-82
2023/06/28 13:45:06;;;;;;;7.00;1.77;;;22.20;87.80;;;;;;4906479;29;20122;-80
2023/06/28 13:47:52;;;;;;;4.35;1.75;;;22.10;87.00;;;;;;4909448;29;20036;-80
2023/06/28 13:50:38;;;;;;;7.53;1.65;;;22.00;88.30;;;;;;4902699;29;20052;-80
2023/06/28 13:53:24;;;;;;;12.30;2.13;;;22.10;87.40;;;;;;4892000;29;20487;-81
2023/06/28 13:56:10;;;;;;;3.58;1.58;;;22.30;87.80;;;;;;4890901;29;20545;-80
2023/06/28 13:58:56;;;;;;;4.25;1.75;;;22.40;88.70;;;;;;4892763;29;20079;-81
2023/06/28 14:01:42;;;;;;;6.40;1.80;;;22.50;87.20;;;;;;4920368;29;20090;-81
2023/06/28 14:04:28;;;;;;;4.18;1.33;;;22.60;86.80;;;;;;4892351;29;20585;-80
2023/06/28 14:07:14;;;;;;;5.13;1.60;;;22.70;87.50;;;;;;4913363;29;20047;-79
2023/06/28 14:10:02;;;;;;;4.10;1.60;;;23.00;87.20;;;;;;4902490;29;20074;-80
2023/06/28 14:12:48;;;;;;;;;;;23.00;86.50;;;;;;4896020;29;20559;-81
2023/06/28 14:15:34;;;;;;;5.20;1.40;;;23.20;86.40;;;;;;4902868;29;19926;-81
2023/06/28 14:18:20;;;;;;;3.85;1.40;;;23.30;85.30;;;;;;4900023;29;20055;-81
2023/06/28 14:21:06;;;;;;;4.50;1.90;;;23.30;85.70;;;;;;4889389;29;20071;-80
2023/06/28 14:23:52;;;;;;;5.45;2.10;;;23.10;84.90;;;;;;4900332;29;20124;-82
2023/06/28 14:26:38;;;;;;;4.30;1.42;;;23.10;85.80;;;;;;4871585;29;20048;-80